map of FYT home
FYT - Airport
Location
City:  Faya-Largeau, Borkou, Chad
ICAO:FTTY
IATA:FYT

Details
Type:Airport (Aerodrome, Airfield)
Latitude:1755'01"N (17.917053)
Longitude:1906'40"E (19.111078)
Datum:WGS 1984
Elevation:771 ft (235 m)
Variation:2.38E (WMM2015 magnetic declination)
0.09 annual change
Runways:1
Longest:9186 × 148 ft (2800 × 45 m), paved

Time
Time Zone:UTC+1
Local Time:

Weather
METAR:FTTY 171500Z 04008KT CAVOK 27/07 Q1016

Related Locations
Nearby:
Farthest:AIT: 12342 mi / 19863 km
Aitutaki (Araura), CK

Find:

   beyond  
but within

Other Information
Maps:
NOTAMs:
Links:
Sources:

  
flag of Chad   

Sectional Chart

Flight Planning
at skyvector.com

Satellite Image

Google Maps Satellite view

 

Copyright © 2004-2018 Karl L. Swartz. All rights reserved.
The Great Circle Mapper name and logo are trademarks of the Great Circle Mapper.
All other trademarks mentioned herein belong to their respective owners.
Please see credits for attibutions and further copyright information.

  Follow gcmap on Facebook Follow gcmap on Twitter Follow gcmap on Google+ GCmap on LinkedIn

hCard Microformat

Geo Microformat